Time;durP1;ratioP1;P1;durP2;ratioP2;P2;SDS_P1;SDS_P2;PMS_P1;PMS_P2;Temp;Humidity;BMP_temperature;BMP_pressure;BME280_temperature;BME280_humidity;BME280_pressure;Samples;Min_cycle;Max_cycle;Signal;HPM_P1;HPM_P2
2022/10/16 00:00:48;;;;;;;8.80;7.70;;;;;;;12.65;77.25;99490.22;419843;1281;142160;-64
2022/10/16 00:10:59;;;;;;;10.80;7.20;;;;;;;12.64;77.48;99492.58;429939;1282;142392;-63
2022/10/16 00:21:09;;;;;;;9.20;8.30;;;;;;;12.64;77.56;99504.32;418642;1281;200327;-62
2022/10/16 00:31:16;;;;;;;7.80;7.00;;;;;;;12.40;77.60;99501.67;423552;1281;144005;-64
2022/10/16 00:41:23;;;;;;;9.10;8.20;;;;;;;11.97;78.36;99501.23;420668;1281;141259;-62
2022/10/16 00:51:34;;;;;;;10.90;8.30;;;;;;;11.60;79.09;99506.40;420456;1282;142053;-62
2022/10/16 01:01:40;;;;;;;9.90;9.00;;;;;;;11.29;79.92;99509.23;420451;1275;141423;-62
2022/10/16 01:11:59;;;;;;;8.40;7.50;;;;;;;11.02;80.62;99520.48;425084;1281;141397;-63
2022/10/16 01:22:06;;;;;;;12.20;8.90;;;;;;;10.78;81.24;99526.41;436184;1281;143319;-62
2022/10/16 01:32:20;;;;;;;13.30;9.30;;;;;;;10.61;81.85;99521.59;436278;1281;142116;-63
2022/10/16 01:42:31;;;;;;;9.80;8.00;;;;;;;10.47;82.45;99514.08;432164;1288;142649;-62
2022/10/16 01:52:41;;;;;;;8.30;7.60;;;;;;;10.23;82.69;99517.70;436167;1290;142161;-62
2022/10/16 02:02:50;;;;;;;9.80;8.30;;;;;;;10.05;83.58;99530.86;435347;1284;142677;-63
2022/10/16 02:13:01;;;;;;;10.50;9.00;;;;;;;9.88;83.83;99538.70;434682;1280;145367;-62
2022/10/16 02:23:12;;;;;;;11.30;8.00;;;;;;;9.70;84.13;99541.71;436195;1283;142137;-63
2022/10/16 02:33:20;;;;;;;10.50;8.30;;;;;;;9.47;84.26;99557.08;435716;1283;141895;-63
2022/10/16 02:43:27;;;;;;;9.40;8.50;;;;;;;9.34;84.82;99560.11;436126;1289;142337;-64
2022/10/16 02:53:33;;;;;;;10.10;9.00;;;;;;;9.28;85.30;99567.10;435482;1287;142274;-62
2022/10/16 03:03:39;;;;;;;11.10;9.90;;;;;;;9.29;86.28;99563.23;436132;1276;143210;-62
2022/10/16 03:13:44;;;;;;;16.00;12.50;;;;;;;9.38;86.87;99573.50;435491;1282;142524;-63
2022/10/16 03:23:50;;;;;;;11.50;9.60;;;;;;;9.65;87.49;99582.45;435325;1290;161126;-63
2022/10/16 03:33:56;;;;;;;13.90;11.30;;;;;;;9.88;87.64;99584.89;436136;1283;143589;-62
2022/10/16 03:44:01;;;;;;;13.00;11.40;;;;;;;10.10;87.77;99591.05;436173;1282;143677;-63
2022/10/16 03:54:07;;;;;;;14.90;11.20;;;;;;;10.32;87.80;99585.88;435432;1288;142165;-63
2022/10/16 04:04:13;;;;;;;13.10;11.20;;;;;;;10.48;87.71;99581.19;436147;1284;145159;-63
2022/10/16 04:14:19;;;;;;;14.40;11.80;;;;;;;10.65;87.89;99578.73;435062;1282;142610;-62
2022/10/16 04:24:24;;;;;;;16.00;12.40;;;;;;;10.80;87.97;99593.00;436161;1285;144549;-62
2022/10/16 04:34:30;;;;;;;13.80;12.00;;;;;;;10.98;87.94;99593.27;436144;1282;142035;-63
2022/10/16 04:44:36;;;;;;;14.10;11.80;;;;;;;11.11;87.89;99604.10;435405;1282;142646;-63
2022/10/16 04:54:41;;;;;;;12.90;11.60;;;;;;;11.26;87.80;99616.27;436192;1284;141999;-63
2022/10/16 05:04:47;;;;;;;14.70;12.10;;;;;;;11.41;87.71;99609.52;436160;1290;144864;-63
2022/10/16 05:14:53;;;;;;;13.80;12.40;;;;;;;11.58;87.52;99606.98;430365;1274;143354;-63
2022/10/16 05:24:58;;;;;;;12.50;11.10;;;;;;;11.71;87.34;99608.38;436169;1284;142558;-63
2022/10/16 05:35:04;;;;;;;13.90;12.50;;;;;;;11.87;87.04;99616.75;436156;1282;142597;-62
2022/10/16 05:45:16;;;;;;;20.90;17.40;;;;;;;12.01;86.73;99619.52;435588;1277;142232;-62
2022/10/16 05:55:22;;;;;;;14.10;12.60;;;;;;;12.16;86.53;99628.84;436159;1283;144353;-62
2022/10/16 06:05:28;;;;;;;14.70;11.80;;;;;;;12.34;86.17;99641.23;435434;1290;142342;-62
2022/10/16 06:15:34;;;;;;;11.20;10.20;;;;;;;12.53;85.88;99647.66;433072;1282;142999;-63
2022/10/16 06:25:39;;;;;;;11.70;9.60;;;;;;;12.85;85.46;99666.15;436144;1284;146338;-63
2022/10/16 06:35:45;;;;;;;12.70;11.00;;;;;;;13.74;84.61;99667.84;435395;1284;143482;-63
2022/10/16 06:45:54;;;;;;;9.70;7.50;;;;;;;15.96;83.62;99685.86;436167;1282;141795;-62
2022/10/16 06:56:07;;;;;;;9.10;8.20;;;;;;;20.77;75.73;99684.89;436236;1284;142365;-64
2022/10/16 07:06:15;;;;;;;9.10;8.20;;;;;;;21.50;70.76;99702.06;435396;1282;144203;-62
2022/10/16 07:16:22;;;;;;;10.30;8.60;;;;;;;21.25;67.44;99718.44;424033;1274;143025;-61
2022/10/16 07:26:30;;;;;;;12.30;8.70;;;;;;;20.67;66.88;99710.83;430293;1274;143369;-62
2022/10/16 07:36:36;;;;;;;10.00;9.00;;;;;;;20.99;66.18;99697.38;428165;1281;142620;-62
2022/10/16 07:46:42;;;;;;;10.30;9.10;;;;;;;23.59;62.92;99689.21;433394;1282;140974;-62
2022/10/16 07:56:47;;;;;;;7.80;7.10;;;;;;;24.85;59.33;99707.60;419146;1275;141674;-62
2022/10/16 08:06:54;;;;;;;10.00;9.10;;;;;;;24.21;57.47;99728.52;420024;1282;141905;-63
2022/10/16 08:17:01;;;;;;;11.10;8.30;;;;;;;22.47;57.96;99730.70;420623;1275;142430;-62
2022/10/16 08:27:08;;;;;;;9.80;8.80;;;;;;;21.33;58.86;99738.59;419584;1274;142584;-62
2022/10/16 08:37:14;;;;;;;11.30;8.80;;;;;;;20.38;59.82;99752.38;420125;1275;142724;-64
2022/10/16 08:47:26;;;;;;;11.70;9.00;;;;;;;19.61;60.96;99757.08;428431;1274;141079;-63
2022/10/16 08:57:32;;;;;;;10.30;9.20;;;;;;;18.85;62.01;99766.03;426175;1275;141416;-62
2022/10/16 09:07:47;;;;;;;11.40;10.30;;;;;;;18.29;63.35;99767.39;420611;1275;144652;-63
2022/10/16 09:18:00;;;;;;;12.40;9.30;;;;;;;18.28;64.35;99752.39;420050;1274;144969;-62
2022/10/16 09:28:08;;;;;;;10.00;8.80;;;;;;;19.06;64.05;99753.77;421501;1281;141370;-63
2022/10/16 09:38:23;;;;;;;;;;;;;;;19.21;63.69;99747.85;419633;1279;143118;-62
2022/10/16 09:48:36;;;;;;;9.10;8.20;;;;;;;19.36;63.24;99754.61;419543;1275;132706;-63
2022/10/16 09:58:50;;;;;;;10.30;8.70;;;;;;;19.47;63.28;99760.59;420902;1283;142558;-62
2022/10/16 10:09:02;;;;;;;9.90;9.00;;;;;;;19.89;62.74;99766.56;420080;1275;143220;-63
2022/10/16 10:19:16;;;;;;;16.90;7.20;;;;;;;20.15;62.22;99763.53;419884;1275;141553;-62
2022/10/16 10:29:35;;;;;;;8.00;6.60;;;;;;;20.30;61.90;99762.50;419546;1281;146193;-63
2022/10/16 10:39:50;;;;;;;8.60;7.10;;;;;;;20.26;61.69;99767.80;420748;1275;141799;-62
2022/10/16 10:50:07;;;;;;;7.00;6.30;;;;;;;20.44;61.96;99765.88;420891;1274;141771;-62
2022/10/16 11:00:28;;;;;;;8.20;6.50;;;;;;;20.58;61.49;99760.91;420378;1275;141857;-61
2022/10/16 11:10:42;;;;;;;7.80;7.00;;;;;;;20.61;61.14;99761.12;420088;1278;141603;-62
2022/10/16 11:20:53;;;;;;;5.70;5.10;;;;;;;20.44;61.34;99751.27;429462;1282;140487;-63
2022/10/16 11:31:03;;;;;;;11.00;5.70;;;;;;;20.57;61.63;99746.96;429509;1274;143117;-63
2022/10/16 11:41:18;;;;;;;7.00;5.30;;;;;;;20.50;61.33;99737.86;421734;1274;142240;-61
2022/10/16 11:51:32;;;;;;;5.30;4.80;;;;;;;20.59;61.56;99749.74;420051;1282;141955;-62
2022/10/16 12:01:45;;;;;;;4.30;3.90;;;;;;;20.65;61.60;99758.50;420017;1281;145593;-62
2022/10/16 12:11:50;;;;;;;5.40;4.80;;;;;;;20.34;61.34;99769.34;420133;1282;141193;-62
2022/10/16 12:21:59;;;;;;;6.10;4.20;;;;;;;19.84;62.06;99771.48;419888;1282;141627;-62
2022/10/16 12:32:19;;;;;;;4.80;4.30;;;;;;;19.89;62.60;99771.41;420706;1274;141275;-63
2022/10/16 12:42:45;;;;;;;5.40;4.50;;;;;;;19.81;62.67;99766.36;420310;1282;335756;-63
2022/10/16 12:52:51;;;;;;;5.90;5.30;;;;;;;20.09;62.48;99766.20;419902;1275;144304;-62
2022/10/16 13:03:22;;;;;;;8.40;5.30;;;;;;;20.06;62.62;99771.80;419069;1274;142083;-63
2022/10/16 13:14:01;;;;;;;6.20;5.00;;;;;;;19.94;62.74;99784.97;421238;1282;143106;-63
2022/10/16 13:24:20;;;;;;;5.80;5.00;;;;;;;19.99;62.99;99777.46;419697;1275;141298;-63
2022/10/16 13:34:26;;;;;;;6.50;5.30;;;;;;;19.93;62.92;99777.00;419973;1282;191728;-62
2022/10/16 13:44:36;;;;;;;5.80;5.30;;;;;;;19.59;63.31;99781.80;419048;1274;141918;-63
2022/10/16 13:54:42;;;;;;;12.40;5.50;;;;;;;19.31;63.68;99793.06;420656;1280;142201;-62
2022/10/16 14:04:50;;;;;;;6.00;5.00;;;;;;;19.20;64.21;99810.27;420456;1282;141907;-63
2022/10/16 14:14:58;;;;;;;6.80;6.10;;;;;;;18.98;64.59;99818.02;420304;1282;142508;-63
2022/10/16 14:25:02;;;;;;;;;;;;;;;18.74;65.06;99835.02;428027;1282;145311;-62
2022/10/16 14:35:25;;;;;;;6.80;6.10;;;;;;;18.62;65.44;99844.61;436253;1284;129058;-63
2022/10/16 14:45:34;;;;;;;10.20;7.50;;;;;;;18.53;66.04;99852.73;431229;1275;206032;-62
2022/10/16 14:55:41;;;;;;;9.50;7.80;;;;;;;18.30;66.48;99858.73;419684;1274;142151;-61
2022/10/16 15:05:47;;;;;;;11.60;8.70;;;;;;;18.05;67.11;99877.76;418996;1278;147967;-62
2022/10/16 15:15:55;;;;;;;11.60;8.60;;;;;;;17.82;67.82;99880.39;419495;1281;141792;-62
2022/10/16 15:26:01;;;;;;;10.40;8.30;;;;;;;17.62;68.51;99887.63;419301;1275;244885;-63
2022/10/16 15:36:08;;;;;;;8.70;7.80;;;;;;;17.36;69.08;99885.83;419091;1281;142625;-62
2022/10/16 15:46:15;;;;;;;10.10;8.60;;;;;;;17.06;69.92;99885.39;420034;1281;141422;-63
2022/10/16 15:56:21;;;;;;;11.50;10.10;;;;;;;16.79;70.53;99896.86;418944;1274;164121;-62
2022/10/16 16:06:28;;;;;;;10.10;9.10;;;;;;;16.53;71.32;99899.97;419914;1274;142603;-63
2022/10/16 16:16:37;;;;;;;10.20;9.20;;;;;;;16.29;72.17;99911.25;420359;1274;142055;-62
2022/10/16 16:26:44;;;;;;;12.40;10.90;;;;;;;16.03;72.91;99920.98;419605;1274;142680;-62
2022/10/16 16:36:49;;;;;;;15.70;11.20;;;;;;;15.80;73.48;99939.95;420020;1281;143329;-62
2022/10/16 16:46:55;;;;;;;16.00;12.30;;;;;;;15.63;74.33;99947.80;419863;1281;144764;-63
2022/10/16 16:57:01;;;;;;;24.60;18.60;;;;;;;15.51;74.90;99962.15;431842;1282;142985;-62
2022/10/16 17:07:07;;;;;;;25.20;19.30;;;;;;;15.43;75.52;99978.13;426135;1275;142455;-63
2022/10/16 17:17:14;;;;;;;25.20;20.00;;;;;;;15.34;75.89;99997.35;419828;1280;145143;-63
2022/10/16 17:27:21;;;;;;;25.60;20.50;;;;;;;15.17;76.18;100006.05;419660;1282;142718;-63
2022/10/16 17:37:27;;;;;;;22.20;18.80;;;;;;;14.98;76.78;100020.88;420412;1281;142185;-63
2022/10/16 17:47:33;;;;;;;28.60;20.90;;;;;;;14.80;77.06;100038.76;419718;1281;142123;-62
2022/10/16 17:57:39;;;;;;;30.90;17.80;;;;;;;14.64;77.67;100044.50;420438;1281;142470;-62
2022/10/16 18:07:45;;;;;;;31.80;24.20;;;;;;;14.45;78.35;100046.38;420586;1274;142050;-63
2022/10/16 18:17:51;;;;;;;30.90;20.90;;;;;;;14.38;79.28;100055.54;420304;1291;143218;-63
2022/10/16 18:27:58;;;;;;;25.50;21.70;;;;;;;14.21;79.37;100065.02;419956;1281;142557;-62
2022/10/16 18:38:04;;;;;;;27.00;19.10;;;;;;;13.94;79.57;100075.92;420975;1281;142596;-62
2022/10/16 18:48:10;;;;;;;25.00;21.30;;;;;;;13.70;79.97;100080.41;419210;1281;143319;-63
2022/10/16 18:58:15;;;;;;;24.00;21.40;;;;;;;13.44;80.60;100098.80;419844;1281;142432;-63
2022/10/16 19:08:21;;;;;;;23.40;20.80;;;;;;;13.28;81.50;100111.64;419120;1277;164232;-63
2022/10/16 19:18:28;;;;;;;23.60;20.40;;;;;;;13.13;81.90;100122.66;419592;1275;143211;-63
2022/10/16 19:28:34;;;;;;;20.30;17.50;;;;;;;12.98;82.23;100136.48;420525;1281;142707;-63
2022/10/16 19:38:41;;;;;;;23.00;19.30;;;;;;;12.79;82.43;100140.48;419167;1282;143576;-62
2022/10/16 19:48:47;;;;;;;23.30;19.80;;;;;;;12.62;82.73;100147.17;420456;1281;146523;-62
2022/10/16 19:58:54;;;;;;;21.60;17.00;;;;;;;12.51;83.26;100157.94;421244;1281;141876;-63
2022/10/16 20:09:00;;;;;;;26.40;18.90;;;;;;;12.38;83.20;100174.52;418884;1281;142634;-63
2022/10/16 20:19:06;;;;;;;26.60;20.30;;;;;;;12.34;84.01;100195.98;419701;1281;142747;-61
2022/10/16 20:29:12;;;;;;;32.60;19.60;;;;;;;12.30;84.02;100206.23;420043;1275;144005;-62
2022/10/16 20:39:18;;;;;;;27.80;20.90;;;;;;;12.13;83.90;100216.05;420018;1281;210449;-62
2022/10/16 20:49:24;;;;;;;32.70;22.90;;;;;;;12.02;84.55;100224.23;419920;1282;143526;-62
2022/10/16 20:59:44;;;;;;;28.80;19.30;;;;;;;12.01;84.71;100235.17;419495;1281;146261;-62
2022/10/16 21:09:50;;;;;;;25.10;21.70;;;;;;;12.10;84.51;100232.73;419767;1281;147116;-63
2022/10/16 21:19:56;;;;;;;30.10;22.10;;;;;;;12.06;84.66;100242.24;421018;1282;143879;-63
2022/10/16 21:30:01;;;;;;;28.90;21.20;;;;;;;11.97;85.03;100250.13;421673;1275;143301;-63
2022/10/16 21:40:09;;;;;;;23.50;20.00;;;;;;;11.94;85.58;100252.41;419427;1281;192136;-62
2022/10/16 21:50:16;;;;;;;25.50;19.70;;;;;;;11.88;85.65;100260.45;419763;1281;145849;-62
2022/10/16 22:00:22;;;;;;;31.10;20.60;;;;;;;11.83;86.22;100268.65;418888;1280;198146;-63
2022/10/16 22:10:28;;;;;;;23.20;20.80;;;;;;;11.67;85.99;100281.86;429729;1282;141974;-62
2022/10/16 22:20:33;;;;;;;30.30;23.60;;;;;;;11.57;86.37;100291.71;429240;1280;142590;-62
2022/10/16 22:30:40;;;;;;;21.10;18.80;;;;;;;11.54;86.50;100292.61;436099;1284;145577;-62
2022/10/16 22:40:46;;;;;;;23.80;19.20;;;;;;;11.48;87.10;100297.45;436047;1280;143474;-63
2022/10/16 22:50:51;;;;;;;23.60;19.70;;;;;;;11.70;87.79;100306.39;435416;1282;143526;-63
2022/10/16 23:00:57;;;;;;;22.50;19.10;;;;;;;11.99;87.59;100313.89;424282;1275;143080;-63
2022/10/16 23:11:07;;;;;;;23.20;19.30;;;;;;;12.15;87.24;100322.63;425606;1282;142767;-62
2022/10/16 23:21:15;;;;;;;25.20;19.20;;;;;;;12.29;87.37;100326.40;421264;1282;142943;-64
2022/10/16 23:31:19;;;;;;;;;;;;;;;12.42;87.31;100335.23;420520;1281;142036;-63
2022/10/16 23:41:25;;;;;;;22.70;17.80;;;;;;;12.48;87.28;100335.11;419996;1281;130298;-62
2022/10/16 23:51:31;;;;;;;20.70;18.10;;;;;;;12.43;86.96;100340.45;420883;1274;141741;-64
